sensor_id;sensor_type;location;lat;lon;timestamp;temperature;humidity
25512;DHT22;13414;44.534;18.700;2023-03-08T00:02:26;7.50;1.00
25512;DHT22;13414;44.534;18.700;2023-03-08T00:04:55;7.40;1.00
25512;DHT22;13414;44.534;18.700;2023-03-08T00:07:23;7.40;1.00
25512;DHT22;13414;44.534;18.700;2023-03-08T00:09:50;7.40;1.00
25512;DHT22;13414;44.534;18.700;2023-03-08T00:12:18;7.30;1.00
25512;DHT22;13414;44.534;18.700;2023-03-08T00:14:45;7.30;1.00
25512;DHT22;13414;44.534;18.700;2023-03-08T00:17:13;7.30;1.00
25512;DHT22;13414;44.534;18.700;2023-03-08T00:19:41;7.30;1.00
25512;DHT22;13414;44.534;18.700;2023-03-08T00:22:10;7.30;1.00
25512;DHT22;13414;44.534;18.700;2023-03-08T00:24:38;7.20;1.00
25512;DHT22;13414;44.534;18.700;2023-03-08T00:27:05;7.20;1.00
25512;DHT22;13414;44.534;18.700;2023-03-08T00:29:33;7.20;1.00
25512;DHT22;13414;44.534;18.700;2023-03-08T00:32:00;7.20;1.00
25512;DHT22;13414;44.534;18.700;2023-03-08T00:34:28;7.10;81.10
25512;DHT22;13414;44.534;18.700;2023-03-08T00:36:55;7.20;50.60
25512;DHT22;13414;44.534;18.700;2023-03-08T00:39:24;7.30;22.50
25512;DHT22;13414;44.534;18.700;2023-03-08T00:41:52;7.20;1.00
25512;DHT22;13414;44.534;18.700;2023-03-08T00:44:20;7.20;21.20
25512;DHT22;13414;44.534;18.700;2023-03-08T00:46:51;7.20;10.00
25512;DHT22;13414;44.534;18.700;2023-03-08T00:49:19;7.30;35.10
25512;DHT22;13414;44.534;18.700;2023-03-08T00:51:47;7.30;76.70
25512;DHT22;13414;44.534;18.700;2023-03-08T00:54:15;7.30;50.50
25512;DHT22;13414;44.534;18.700;2023-03-08T00:56:44;7.20;84.10
25512;DHT22;13414;44.534;18.700;2023-03-08T00:59:12;7.30;98.80
25512;DHT22;13414;44.534;18.700;2023-03-08T01:01:39;7.30;86.70
25512;DHT22;13414;44.534;18.700;2023-03-08T01:04:07;7.20;99.90
25512;DHT22;13414;44.534;18.700;2023-03-08T01:06:34;7.20;99.90
25512;DHT22;13414;44.534;18.700;2023-03-08T01:09:02;7.20;99.90
25512;DHT22;13414;44.534;18.700;2023-03-08T01:11:30;7.10;99.90
25512;DHT22;13414;44.534;18.700;2023-03-08T01:13:59;7.10;99.90
25512;DHT22;13414;44.534;18.700;2023-03-08T01:16:29;7.00;99.90
25512;DHT22;13414;44.534;18.700;2023-03-08T01:18:59;6.90;1.00
25512;DHT22;13414;44.534;18.700;2023-03-08T01:21:28;6.80;1.00
25512;DHT22;13414;44.534;18.700;2023-03-08T01:23:57;6.80;1.00
25512;DHT22;13414;44.534;18.700;2023-03-08T01:26:27;6.80;1.00
25512;DHT22;13414;44.534;18.700;2023-03-08T01:28:55;6.80;1.00
25512;DHT22;13414;44.534;18.700;2023-03-08T01:31:26;6.80;1.00
25512;DHT22;13414;44.534;18.700;2023-03-08T01:33:55;6.80;1.00
25512;DHT22;13414;44.534;18.700;2023-03-08T01:36:25;6.80;1.00
25512;DHT22;13414;44.534;18.700;2023-03-08T01:38:52;6.80;1.00
25512;DHT22;13414;44.534;18.700;2023-03-08T01:41:22;6.70;1.00
25512;DHT22;13414;44.534;18.700;2023-03-08T01:43:51;6.80;1.00
25512;DHT22;13414;44.534;18.700;2023-03-08T01:46:27;6.70;1.00
25512;DHT22;13414;44.534;18.700;2023-03-08T01:49:14;6.70;1.00
25512;DHT22;13414;44.534;18.700;2023-03-08T01:51:46;6.70;1.00
25512;DHT22;13414;44.534;18.700;2023-03-08T01:54:18;6.60;1.00
25512;DHT22;13414;44.534;18.700;2023-03-08T01:56:48;6.60;1.00
25512;DHT22;13414;44.534;18.700;2023-03-08T01:59:17;6.60;1.00
25512;DHT22;13414;44.534;18.700;2023-03-08T02:01:49;6.50;1.00
25512;DHT22;13414;44.534;18.700;2023-03-08T02:04:19;6.50;1.00
25512;DHT22;13414;44.534;18.700;2023-03-08T02:06:47;6.50;1.00
25512;DHT22;13414;44.534;18.700;2023-03-08T02:09:20;6.50;1.00
25512;DHT22;13414;44.534;18.700;2023-03-08T02:11:48;6.50;35.60
25512;DHT22;13414;44.534;18.700;2023-03-08T02:14:15;6.50;49.80
25512;DHT22;13414;44.534;18.700;2023-03-08T02:16:46;6.40;26.50
25512;DHT22;13414;44.534;18.700;2023-03-08T02:19:21;6.40;82.30
25512;DHT22;13414;44.534;18.700;2023-03-08T02:21:49;6.40;99.90
25512;DHT22;13414;44.534;18.700;2023-03-08T02:24:20;6.50;1.00
25512;DHT22;13414;44.534;18.700;2023-03-08T02:26:48;6.50;1.00
25512;DHT22;13414;44.534;18.700;2023-03-08T02:29:17;6.50;18.10
25512;DHT22;13414;44.534;18.700;2023-03-08T02:31:46;6.60;1.00
25512;DHT22;13414;44.534;18.700;2023-03-08T02:34:13;6.60;1.00
25512;DHT22;13414;44.534;18.700;2023-03-08T02:36:40;6.60;1.00
25512;DHT22;13414;44.534;18.700;2023-03-08T02:39:08;6.60;1.00
25512;DHT22;13414;44.534;18.700;2023-03-08T02:41:37;6.60;1.00
25512;DHT22;13414;44.534;18.700;2023-03-08T02:44:05;6.50;1.00
25512;DHT22;13414;44.534;18.700;2023-03-08T02:46:34;6.60;1.00
25512;DHT22;13414;44.534;18.700;2023-03-08T02:49:02;6.60;1.00
25512;DHT22;13414;44.534;18.700;2023-03-08T02:51:29;6.60;1.00
25512;DHT22;13414;44.534;18.700;2023-03-08T02:53:58;6.60;1.00
25512;DHT22;13414;44.534;18.700;2023-03-08T02:56:25;6.50;1.00
25512;DHT22;13414;44.534;18.700;2023-03-08T02:58:54;6.50;1.00
25512;DHT22;13414;44.534;18.700;2023-03-08T03:01:23;6.50;1.00
25512;DHT22;13414;44.534;18.700;2023-03-08T03:03:53;6.50;1.00
25512;DHT22;13414;44.534;18.700;2023-03-08T03:06:21;6.60;1.00
25512;DHT22;13414;44.534;18.700;2023-03-08T03:08:52;6.70;1.00
25512;DHT22;13414;44.534;18.700;2023-03-08T03:11:21;6.70;1.00
25512;DHT22;13414;44.534;18.700;2023-03-08T03:13:55;6.80;1.00
25512;DHT22;13414;44.534;18.700;2023-03-08T03:16:26;6.70;1.00
25512;DHT22;13414;44.534;18.700;2023-03-08T03:18:54;6.70;1.00
25512;DHT22;13414;44.534;18.700;2023-03-08T03:21:23;6.80;1.00
25512;DHT22;13414;44.534;18.700;2023-03-08T03:23:52;6.80;1.00
25512;DHT22;13414;44.534;18.700;2023-03-08T03:26:24;6.80;1.00
25512;DHT22;13414;44.534;18.700;2023-03-08T03:28:57;6.80;99.90
25512;DHT22;13414;44.534;18.700;2023-03-08T03:31:29;6.80;99.90
25512;DHT22;13414;44.534;18.700;2023-03-08T03:33:57;6.80;99.90
25512;DHT22;13414;44.534;18.700;2023-03-08T03:36:26;6.80;99.90
25512;DHT22;13414;44.534;18.700;2023-03-08T03:38:55;6.80;99.90
25512;DHT22;13414;44.534;18.700;2023-03-08T03:41:23;6.90;99.90
25512;DHT22;13414;44.534;18.700;2023-03-08T03:44:01;6.90;99.90
25512;DHT22;13414;44.534;18.700;2023-03-08T03:46:30;6.90;99.90
25512;DHT22;13414;44.534;18.700;2023-03-08T03:48:58;6.90;99.90
25512;DHT22;13414;44.534;18.700;2023-03-08T03:51:32;6.90;99.90
25512;DHT22;13414;44.534;18.700;2023-03-08T03:54:14;6.90;99.90
25512;DHT22;13414;44.534;18.700;2023-03-08T03:56:43;6.90;99.90
25512;DHT22;13414;44.534;18.700;2023-03-08T03:59:13;6.90;99.90
25512;DHT22;13414;44.534;18.700;2023-03-08T04:01:41;7.00;99.90
25512;DHT22;13414;44.534;18.700;2023-03-08T04:04:18;7.00;99.90
25512;DHT22;13414;44.534;18.700;2023-03-08T04:06:47;7.00;99.90
25512;DHT22;13414;44.534;18.700;2023-03-08T04:09:18;7.00;99.90
25512;DHT22;13414;44.534;18.700;2023-03-08T04:11:54;7.00;99.90
25512;DHT22;13414;44.534;18.700;2023-03-08T04:14:29;7.00;99.90
25512;DHT22;13414;44.534;18.700;2023-03-08T04:16:58;7.00;99.90
25512;DHT22;13414;44.534;18.700;2023-03-08T04:19:34;7.00;99.90
25512;DHT22;13414;44.534;18.700;2023-03-08T04:22:01;6.90;99.90
25512;DHT22;13414;44.534;18.700;2023-03-08T04:24:35;6.90;99.90
25512;DHT22;13414;44.534;18.700;2023-03-08T04:27:08;6.90;99.90
25512;DHT22;13414;44.534;18.700;2023-03-08T04:29:37;7.00;99.90
25512;DHT22;13414;44.534;18.700;2023-03-08T04:32:06;7.10;99.90
25512;DHT22;13414;44.534;18.700;2023-03-08T04:34:41;7.10;99.90
25512;DHT22;13414;44.534;18.700;2023-03-08T04:37:11;7.00;99.90
25512;DHT22;13414;44.534;18.700;2023-03-08T04:39:41;7.00;99.90
25512;DHT22;13414;44.534;18.700;2023-03-08T04:42:10;7.00;99.90
25512;DHT22;13414;44.534;18.700;2023-03-08T04:44:39;7.00;99.90
25512;DHT22;13414;44.534;18.700;2023-03-08T04:47:07;7.00;99.90
25512;DHT22;13414;44.534;18.700;2023-03-08T04:49:43;7.00;99.90
25512;DHT22;13414;44.534;18.700;2023-03-08T04:52:11;7.00;99.90
25512;DHT22;13414;44.534;18.700;2023-03-08T04:54:40;7.00;99.90
25512;DHT22;13414;44.534;18.700;2023-03-08T04:57:16;7.00;99.90
25512;DHT22;13414;44.534;18.700;2023-03-08T04:59:44;7.10;99.90
25512;DHT22;13414;44.534;18.700;2023-03-08T05:02:13;7.10;99.90
25512;DHT22;13414;44.534;18.700;2023-03-08T05:04:41;7.20;99.90
25512;DHT22;13414;44.534;18.700;2023-03-08T05:07:09;7.20;99.90
25512;DHT22;13414;44.534;18.700;2023-03-08T05:09:37;7.20;99.90
25512;DHT22;13414;44.534;18.700;2023-03-08T05:12:05;7.20;99.90
25512;DHT22;13414;44.534;18.700;2023-03-08T05:14:52;7.20;99.90
25512;DHT22;13414;44.534;18.700;2023-03-08T05:17:19;7.10;99.90
25512;DHT22;13414;44.534;18.700;2023-03-08T05:19:47;6.90;99.90
25512;DHT22;13414;44.534;18.700;2023-03-08T05:22:19;6.90;99.90
25512;DHT22;13414;44.534;18.700;2023-03-08T05:24:50;6.80;1.00
25512;DHT22;13414;44.534;18.700;2023-03-08T05:27:18;6.80;1.00
25512;DHT22;13414;44.534;18.700;2023-03-08T05:29:46;6.80;1.00
25512;DHT22;13414;44.534;18.700;2023-03-08T05:32:15;6.80;1.00
25512;DHT22;13414;44.534;18.700;2023-03-08T05:34:44;6.90;1.00
25512;DHT22;13414;44.534;18.700;2023-03-08T05:37:18;6.90;1.00
25512;DHT22;13414;44.534;18.700;2023-03-08T05:39:46;6.90;1.00
25512;DHT22;13414;44.534;18.700;2023-03-08T05:42:19;6.80;1.00
25512;DHT22;13414;44.534;18.700;2023-03-08T05:44:46;6.90;1.00
25512;DHT22;13414;44.534;18.700;2023-03-08T05:47:20;6.90;1.00
25512;DHT22;13414;44.534;18.700;2023-03-08T05:49:48;7.00;1.00
25512;DHT22;13414;44.534;18.700;2023-03-08T05:52:16;7.00;1.00
25512;DHT22;13414;44.534;18.700;2023-03-08T05:54:44;7.10;1.00
25512;DHT22;13414;44.534;18.700;2023-03-08T05:57:17;7.10;1.00
25512;DHT22;13414;44.534;18.700;2023-03-08T05:59:45;7.10;99.90
25512;DHT22;13414;44.534;18.700;2023-03-08T06:02:15;7.10;99.90
25512;DHT22;13414;44.534;18.700;2023-03-08T06:04:50;7.20;99.90
25512;DHT22;13414;44.534;18.700;2023-03-08T06:07:20;7.20;99.90
25512;DHT22;13414;44.534;18.700;2023-03-08T06:10:01;7.20;99.90
25512;DHT22;13414;44.534;18.700;2023-03-08T06:12:28;7.20;99.90
25512;DHT22;13414;44.534;18.700;2023-03-08T06:15:00;7.20;99.90
25512;DHT22;13414;44.534;18.700;2023-03-08T06:17:32;7.20;99.90
25512;DHT22;13414;44.534;18.700;2023-03-08T06:20:01;7.20;99.90
25512;DHT22;13414;44.534;18.700;2023-03-08T06:22:31;7.30;99.90
25512;DHT22;13414;44.534;18.700;2023-03-08T06:25:00;7.50;99.90
25512;DHT22;13414;44.534;18.700;2023-03-08T06:27:32;7.70;99.90
25512;DHT22;13414;44.534;18.700;2023-03-08T06:30:05;7.90;21.70
25512;DHT22;13414;44.534;18.700;2023-03-08T06:32:33;8.00;1.00
25512;DHT22;13414;44.534;18.700;2023-03-08T06:35:04;8.30;1.00
25512;DHT22;13414;44.534;18.700;2023-03-08T06:37:35;8.50;1.00
25512;DHT22;13414;44.534;18.700;2023-03-08T06:40:05;8.90;1.00
25512;DHT22;13414;44.534;18.700;2023-03-08T06:42:34;9.30;1.00
25512;DHT22;13414;44.534;18.700;2023-03-08T06:45:02;9.60;1.00
25512;DHT22;13414;44.534;18.700;2023-03-08T06:47:29;9.80;1.00
25512;DHT22;13414;44.534;18.700;2023-03-08T06:49:58;10.00;1.00
25512;DHT22;13414;44.534;18.700;2023-03-08T06:52:27;10.20;1.00
25512;DHT22;13414;44.534;18.700;2023-03-08T06:54:59;10.40;1.00
25512;DHT22;13414;44.534;18.700;2023-03-08T06:57:27;10.60;1.00
25512;DHT22;13414;44.534;18.700;2023-03-08T06:59:54;11.00;1.00
25512;DHT22;13414;44.534;18.700;2023-03-08T07:02:22;11.10;1.00
25512;DHT22;13414;44.534;18.700;2023-03-08T07:04:49;11.20;1.00
25512;DHT22;13414;44.534;18.700;2023-03-08T07:07:17;11.20;1.00
25512;DHT22;13414;44.534;18.700;2023-03-08T07:09:46;11.30;1.00
25512;DHT22;13414;44.534;18.700;2023-03-08T07:12:14;11.30;1.00
25512;DHT22;13414;44.534;18.700;2023-03-08T07:14:42;11.40;1.00
25512;DHT22;13414;44.534;18.700;2023-03-08T07:17:09;11.50;1.00
25512;DHT22;13414;44.534;18.700;2023-03-08T07:19:37;11.80;1.00
25512;DHT22;13414;44.534;18.700;2023-03-08T07:22:04;12.00;1.00
25512;DHT22;13414;44.534;18.700;2023-03-08T07:24:32;12.30;1.00
25512;DHT22;13414;44.534;18.700;2023-03-08T07:27:03;12.60;99.90
25512;DHT22;13414;44.534;18.700;2023-03-08T07:29:31;12.80;99.90
25512;DHT22;13414;44.534;18.700;2023-03-08T07:32:00;13.00;99.90
25512;DHT22;13414;44.534;18.700;2023-03-08T07:34:30;13.20;99.90
25512;DHT22;13414;44.534;18.700;2023-03-08T07:36:59;13.40;99.90
25512;DHT22;13414;44.534;18.700;2023-03-08T07:39:27;13.50;99.90
25512;DHT22;13414;44.534;18.700;2023-03-08T07:41:55;13.70;99.90
25512;DHT22;13414;44.534;18.700;2023-03-08T07:44:25;13.80;99.90
25512;DHT22;13414;44.534;18.700;2023-03-08T07:46:52;14.00;99.90
25512;DHT22;13414;44.534;18.700;2023-03-08T07:49:20;14.20;99.90
25512;DHT22;13414;44.534;18.700;2023-03-08T07:51:48;14.40;99.90
25512;DHT22;13414;44.534;18.700;2023-03-08T07:54:16;14.50;99.90
25512;DHT22;13414;44.534;18.700;2023-03-08T07:56:43;14.80;99.90
25512;DHT22;13414;44.534;18.700;2023-03-08T07:59:11;14.90;99.90
25512;DHT22;13414;44.534;18.700;2023-03-08T08:01:40;15.10;99.90
25512;DHT22;13414;44.534;18.700;2023-03-08T08:04:07;15.30;99.90
25512;DHT22;13414;44.534;18.700;2023-03-08T08:06:37;15.50;99.90
25512;DHT22;13414;44.534;18.700;2023-03-08T08:09:05;15.60;99.90
25512;DHT22;13414;44.534;18.700;2023-03-08T08:11:33;15.50;99.90
25512;DHT22;13414;44.534;18.700;2023-03-08T08:14:00;15.40;99.90
25512;DHT22;13414;44.534;18.700;2023-03-08T08:16:28;15.20;99.90
25512;DHT22;13414;44.534;18.700;2023-03-08T08:18:57;15.00;99.90
25512;DHT22;13414;44.534;18.700;2023-03-08T08:21:24;14.90;99.90
25512;DHT22;13414;44.534;18.700;2023-03-08T08:23:52;14.80;99.90
25512;DHT22;13414;44.534;18.700;2023-03-08T08:26:22;14.80;99.90
25512;DHT22;13414;44.534;18.700;2023-03-08T08:28:52;14.80;99.90
25512;DHT22;13414;44.534;18.700;2023-03-08T08:31:22;14.90;99.90
25512;DHT22;13414;44.534;18.700;2023-03-08T08:33:50;15.10;99.90
25512;DHT22;13414;44.534;18.700;2023-03-08T08:36:20;15.20;99.90
25512;DHT22;13414;44.534;18.700;2023-03-08T08:38:47;15.50;99.90
25512;DHT22;13414;44.534;18.700;2023-03-08T08:41:16;15.70;99.90
25512;DHT22;13414;44.534;18.700;2023-03-08T08:43:44;15.90;99.90
25512;DHT22;13414;44.534;18.700;2023-03-08T08:46:13;16.10;99.90
25512;DHT22;13414;44.534;18.700;2023-03-08T08:48:41;16.30;99.90
25512;DHT22;13414;44.534;18.700;2023-03-08T08:51:11;16.10;99.90
25512;DHT22;13414;44.534;18.700;2023-03-08T08:53:41;16.30;99.90
25512;DHT22;13414;44.534;18.700;2023-03-08T08:56:11;16.20;99.90
25512;DHT22;13414;44.534;18.700;2023-03-08T08:58:38;16.20;99.90
25512;DHT22;13414;44.534;18.700;2023-03-08T09:01:12;16.10;99.90
25512;DHT22;13414;44.534;18.700;2023-03-08T09:03:40;16.20;99.90
25512;DHT22;13414;44.534;18.700;2023-03-08T09:06:08;16.20;99.90
25512;DHT22;13414;44.534;18.700;2023-03-08T09:08:35;16.10;99.90
25512;DHT22;13414;44.534;18.700;2023-03-08T09:11:06;16.00;99.90
25512;DHT22;13414;44.534;18.700;2023-03-08T09:13:34;16.00;99.90
25512;DHT22;13414;44.534;18.700;2023-03-08T09:16:03;16.10;99.90
25512;DHT22;13414;44.534;18.700;2023-03-08T09:18:31;16.30;99.90
25512;DHT22;13414;44.534;18.700;2023-03-08T09:21:00;16.10;99.90
25512;DHT22;13414;44.534;18.700;2023-03-08T09:23:27;16.20;99.90
25512;DHT22;13414;44.534;18.700;2023-03-08T09:25:56;16.20;99.90
25512;DHT22;13414;44.534;18.700;2023-03-08T09:28:25;16.30;99.90
25512;DHT22;13414;44.534;18.700;2023-03-08T09:30:52;16.30;99.90
25512;DHT22;13414;44.534;18.700;2023-03-08T09:33:20;16.30;99.90
25512;DHT22;13414;44.534;18.700;2023-03-08T09:35:54;16.30;99.90
25512;DHT22;13414;44.534;18.700;2023-03-08T09:38:23;16.40;99.90
25512;DHT22;13414;44.534;18.700;2023-03-08T09:40:57;16.40;99.90
25512;DHT22;13414;44.534;18.700;2023-03-08T09:43:36;16.60;99.90
25512;DHT22;13414;44.534;18.700;2023-03-08T09:46:12;16.70;99.90
25512;DHT22;13414;44.534;18.700;2023-03-08T09:51:10;16.70;99.90
25512;DHT22;13414;44.534;18.700;2023-03-08T09:53:43;16.80;99.90
25512;DHT22;13414;44.534;18.700;2023-03-08T09:56:17;16.90;99.90
25512;DHT22;13414;44.534;18.700;2023-03-08T09:58:49;17.00;99.90
25512;DHT22;13414;44.534;18.700;2023-03-08T10:01:26;17.00;99.90
25512;DHT22;13414;44.534;18.700;2023-03-08T10:07:01;16.80;99.90
25512;DHT22;13414;44.534;18.700;2023-03-08T10:09:35;16.90;99.90
25512;DHT22;13414;44.534;18.700;2023-03-08T10:12:15;16.90;99.90
25512;DHT22;13414;44.534;18.700;2023-03-08T10:14:49;17.00;99.90
25512;DHT22;13414;44.534;18.700;2023-03-08T10:17:19;17.20;99.90
25512;DHT22;13414;44.534;18.700;2023-03-08T10:19:52;17.40;99.90
25512;DHT22;13414;44.534;18.700;2023-03-08T10:22:30;17.60;99.90
25512;DHT22;13414;44.534;18.700;2023-03-08T10:25:22;17.60;99.90
25512;DHT22;13414;44.534;18.700;2023-03-08T10:27:55;17.80;99.90
25512;DHT22;13414;44.534;18.700;2023-03-08T10:30:43;17.90;99.90
25512;DHT22;13414;44.534;18.700;2023-03-08T10:33:16;18.10;99.90
25512;DHT22;13414;44.534;18.700;2023-03-08T10:35:56;18.30;99.90
25512;DHT22;13414;44.534;18.700;2023-03-08T10:38:26;18.50;99.90
25512;DHT22;13414;44.534;18.700;2023-03-08T10:41:01;18.60;99.90
25512;DHT22;13414;44.534;18.700;2023-03-08T10:43:31;18.60;99.90
25512;DHT22;13414;44.534;18.700;2023-03-08T10:46:03;18.80;99.90
25512;DHT22;13414;44.534;18.700;2023-03-08T10:48:31;19.00;99.90
25512;DHT22;13414;44.534;18.700;2023-03-08T10:51:00;19.10;99.90
25512;DHT22;13414;44.534;18.700;2023-03-08T10:53:28;19.00;99.90
25512;DHT22;13414;44.534;18.700;2023-03-08T10:55:57;19.00;99.90
25512;DHT22;13414;44.534;18.700;2023-03-08T10:58:28;19.10;99.90
25512;DHT22;13414;44.534;18.700;2023-03-08T11:00:58;19.40;99.90
25512;DHT22;13414;44.534;18.700;2023-03-08T11:03:27;19.60;99.90
25512;DHT22;13414;44.534;18.700;2023-03-08T11:05:57;19.70;99.90
25512;DHT22;13414;44.534;18.700;2023-03-08T11:08:28;19.50;99.90
25512;DHT22;13414;44.534;18.700;2023-03-08T11:11:07;19.40;99.90
25512;DHT22;13414;44.534;18.700;2023-03-08T11:13:36;19.40;99.90
25512;DHT22;13414;44.534;18.700;2023-03-08T11:16:18;19.40;99.90
25512;DHT22;13414;44.534;18.700;2023-03-08T11:19:01;19.40;99.90
25512;DHT22;13414;44.534;18.700;2023-03-08T11:21:35;19.40;99.90
25512;DHT22;13414;44.534;18.700;2023-03-08T11:24:13;19.40;99.90
25512;DHT22;13414;44.534;18.700;2023-03-08T11:26:49;19.30;99.90
25512;DHT22;13414;44.534;18.700;2023-03-08T11:29:28;19.30;99.90
25512;DHT22;13414;44.534;18.700;2023-03-08T11:32:03;19.10;99.90
25512;DHT22;13414;44.534;18.700;2023-03-08T11:35:03;19.10;99.90
25512;DHT22;13414;44.534;18.700;2023-03-08T11:37:37;19.40;99.90
25512;DHT22;13414;44.534;18.700;2023-03-08T11:40:19;19.40;99.90
25512;DHT22;13414;44.534;18.700;2023-03-08T11:42:55;19.40;99.90
25512;DHT22;13414;44.534;18.700;2023-03-08T11:45:28;19.50;99.90
25512;DHT22;13414;44.534;18.700;2023-03-08T11:48:23;19.40;99.90
25512;DHT22;13414;44.534;18.700;2023-03-08T11:50:59;19.30;99.90
25512;DHT22;13414;44.534;18.700;2023-03-08T11:53:40;19.00;99.90
25512;DHT22;13414;44.534;18.700;2023-03-08T11:56:28;19.10;99.90
25512;DHT22;13414;44.534;18.700;2023-03-08T11:59:04;19.10;99.90
25512;DHT22;13414;44.534;18.700;2023-03-08T12:01:37;19.10;99.90
25512;DHT22;13414;44.534;18.700;2023-03-08T12:04:11;18.90;99.90
25512;DHT22;13414;44.534;18.700;2023-03-08T12:06:42;18.70;99.90
25512;DHT22;13414;44.534;18.700;2023-03-08T12:09:17;18.70;99.90
25512;DHT22;13414;44.534;18.700;2023-03-08T12:11:53;18.70;99.90
25512;DHT22;13414;44.534;18.700;2023-03-08T12:14:25;18.80;99.90
25512;DHT22;13414;44.534;18.700;2023-03-08T12:17:01;19.00;99.90
25512;DHT22;13414;44.534;18.700;2023-03-08T12:19:35;19.30;99.90
25512;DHT22;13414;44.534;18.700;2023-03-08T12:22:27;19.40;99.90
25512;DHT22;13414;44.534;18.700;2023-03-08T12:25:05;19.40;99.90
25512;DHT22;13414;44.534;18.700;2023-03-08T12:27:39;19.40;99.90
25512;DHT22;13414;44.534;18.700;2023-03-08T12:30:21;19.30;99.90
25512;DHT22;13414;44.534;18.700;2023-03-08T12:32:51;19.10;99.90
25512;DHT22;13414;44.534;18.700;2023-03-08T12:35:27;19.10;99.90
25512;DHT22;13414;44.534;18.700;2023-03-08T12:37:58;19.10;99.90
25512;DHT22;13414;44.534;18.700;2023-03-08T12:40:29;18.90;99.90
25512;DHT22;13414;44.534;18.700;2023-03-08T12:43:06;18.80;99.90
25512;DHT22;13414;44.534;18.700;2023-03-08T12:45:34;19.00;99.90
25512;DHT22;13414;44.534;18.700;2023-03-08T12:48:21;19.20;99.90
25512;DHT22;13414;44.534;18.700;2023-03-08T12:51:00;19.00;99.90
25512;DHT22;13414;44.534;18.700;2023-03-08T12:53:36;18.70;99.90
25512;DHT22;13414;44.534;18.700;2023-03-08T12:56:22;18.60;99.90
25512;DHT22;13414;44.534;18.700;2023-03-08T12:58:52;18.80;99.90
25512;DHT22;13414;44.534;18.700;2023-03-08T13:01:31;18.90;99.90
25512;DHT22;13414;44.534;18.700;2023-03-08T13:03:59;18.90;99.90
25512;DHT22;13414;44.534;18.700;2023-03-08T13:06:52;19.10;99.90
25512;DHT22;13414;44.534;18.700;2023-03-08T13:09:26;19.00;99.90
25512;DHT22;13414;44.534;18.700;2023-03-08T13:12:00;18.90;99.90
25512;DHT22;13414;44.534;18.700;2023-03-08T13:14:39;18.70;99.90
25512;DHT22;13414;44.534;18.700;2023-03-08T13:17:32;18.50;99.90
25512;DHT22;13414;44.534;18.700;2023-03-08T13:20:07;18.30;99.90
25512;DHT22;13414;44.534;18.700;2023-03-08T13:22:42;18.30;99.90
25512;DHT22;13414;44.534;18.700;2023-03-08T13:25:23;18.40;99.90
25512;DHT22;13414;44.534;18.700;2023-03-08T13:27:59;18.50;99.90
25512;DHT22;13414;44.534;18.700;2023-03-08T13:30:31;18.60;99.90
25512;DHT22;13414;44.534;18.700;2023-03-08T13:32:59;18.80;99.90
25512;DHT22;13414;44.534;18.700;2023-03-08T13:35:27;18.70;99.90
25512;DHT22;13414;44.534;18.700;2023-03-08T13:37:56;18.60;99.90
25512;DHT22;13414;44.534;18.700;2023-03-08T13:40:27;18.30;99.90
25512;DHT22;13414;44.534;18.700;2023-03-08T13:42:58;18.10;99.90
25512;DHT22;13414;44.534;18.700;2023-03-08T13:45:27;18.20;99.90
25512;DHT22;13414;44.534;18.700;2023-03-08T13:47:57;18.20;99.90
25512;DHT22;13414;44.534;18.700;2023-03-08T13:50:28;18.30;99.90
25512;DHT22;13414;44.534;18.700;2023-03-08T13:52:57;18.30;99.90
25512;DHT22;13414;44.534;18.700;2023-03-08T13:55:29;18.30;99.90
25512;DHT22;13414;44.534;18.700;2023-03-08T13:57:58;18.50;99.90
25512;DHT22;13414;44.534;18.700;2023-03-08T14:00:29;18.50;99.90
25512;DHT22;13414;44.534;18.700;2023-03-08T14:02:57;18.50;99.90
25512;DHT22;13414;44.534;18.700;2023-03-08T14:05:28;18.50;99.90
25512;DHT22;13414;44.534;18.700;2023-03-08T14:07:58;18.40;99.90
25512;DHT22;13414;44.534;18.700;2023-03-08T14:10:34;18.50;99.90
25512;DHT22;13414;44.534;18.700;2023-03-08T14:13:03;18.50;99.90
25512;DHT22;13414;44.534;18.700;2023-03-08T14:15:34;18.50;99.90
25512;DHT22;13414;44.534;18.700;2023-03-08T14:18:04;18.20;99.90
25512;DHT22;13414;44.534;18.700;2023-03-08T14:20:34;18.00;99.90
25512;DHT22;13414;44.534;18.700;2023-03-08T14:23:02;17.80;99.90
25512;DHT22;13414;44.534;18.700;2023-03-08T14:25:31;17.70;99.90
25512;DHT22;13414;44.534;18.700;2023-03-08T14:27:59;17.60;99.90
25512;DHT22;13414;44.534;18.700;2023-03-08T14:30:28;17.60;99.90
25512;DHT22;13414;44.534;18.700;2023-03-08T14:32:59;17.50;99.90
25512;DHT22;13414;44.534;18.700;2023-03-08T14:35:35;17.40;99.90
25512;DHT22;13414;44.534;18.700;2023-03-08T14:38:12;17.40;99.90
25512;DHT22;13414;44.534;18.700;2023-03-08T14:40:47;17.30;99.90
25512;DHT22;13414;44.534;18.700;2023-03-08T14:43:17;17.40;99.90
25512;DHT22;13414;44.534;18.700;2023-03-08T14:45:51;17.40;99.90
25512;DHT22;13414;44.534;18.700;2023-03-08T14:48:27;17.60;99.90
25512;DHT22;13414;44.534;18.700;2023-03-08T14:50:57;17.60;99.90
25512;DHT22;13414;44.534;18.700;2023-03-08T14:53:31;17.50;99.90
25512;DHT22;13414;44.534;18.700;2023-03-08T14:56:04;17.40;99.90
25512;DHT22;13414;44.534;18.700;2023-03-08T14:58:33;17.20;99.90
25512;DHT22;13414;44.534;18.700;2023-03-08T15:01:03;17.20;99.90
25512;DHT22;13414;44.534;18.700;2023-03-08T15:03:31;17.30;99.90
25512;DHT22;13414;44.534;18.700;2023-03-08T15:06:04;17.40;99.90
25512;DHT22;13414;44.534;18.700;2023-03-08T15:08:33;17.40;99.90
25512;DHT22;13414;44.534;18.700;2023-03-08T15:11:02;17.50;99.90
25512;DHT22;13414;44.534;18.700;2023-03-08T15:13:29;17.60;99.90
25512;DHT22;13414;44.534;18.700;2023-03-08T15:15:57;17.70;99.90
25512;DHT22;13414;44.534;18.700;2023-03-08T15:18:24;17.70;99.90
25512;DHT22;13414;44.534;18.700;2023-03-08T15:20:52;17.80;99.90
25512;DHT22;13414;44.534;18.700;2023-03-08T15:23:22;17.70;99.90
25512;DHT22;13414;44.534;18.700;2023-03-08T15:25:50;17.60;99.90
25512;DHT22;13414;44.534;18.700;2023-03-08T15:28:20;17.50;99.90
25512;DHT22;13414;44.534;18.700;2023-03-08T15:30:49;17.30;99.90
25512;DHT22;13414;44.534;18.700;2023-03-08T15:33:18;17.20;99.90
25512;DHT22;13414;44.534;18.700;2023-03-08T15:35:46;17.00;99.90
25512;DHT22;13414;44.534;18.700;2023-03-08T15:38:15;16.80;99.90
25512;DHT22;13414;44.534;18.700;2023-03-08T15:40:43;16.70;99.90
25512;DHT22;13414;44.534;18.700;2023-03-08T15:43:11;16.70;99.90
25512;DHT22;13414;44.534;18.700;2023-03-08T15:45:39;16.60;99.90
25512;DHT22;13414;44.534;18.700;2023-03-08T15:48:11;16.60;99.90
25512;DHT22;13414;44.534;18.700;2023-03-08T15:50:39;16.60;99.90
25512;DHT22;13414;44.534;18.700;2023-03-08T15:53:08;16.60;99.90
25512;DHT22;13414;44.534;18.700;2023-03-08T15:55:37;16.60;99.90